sensor_id;sensor_type;location;lat;lon;timestamp;P1;durP1;ratioP1;P2;durP2;ratioP2
20888;SDS011;10604;51.976;7.594;2022-12-31T00:01:54;2.93;;;2.57;;
20888;SDS011;10604;51.976;7.594;2022-12-31T00:04:19;3.13;;;2.17;;
20888;SDS011;10604;51.976;7.594;2022-12-31T00:06:45;2.40;;;2.08;;
20888;SDS011;10604;51.976;7.594;2022-12-31T00:09:11;3.25;;;2.17;;
20888;SDS011;10604;51.976;7.594;2022-12-31T00:11:37;2.43;;;2.10;;
20888;SDS011;10604;51.976;7.594;2022-12-31T00:14:03;2.75;;;2.15;;
20888;SDS011;10604;51.976;7.594;2022-12-31T00:16:30;2.78;;;2.00;;
20888;SDS011;10604;51.976;7.594;2022-12-31T00:18:58;2.38;;;2.15;;
20888;SDS011;10604;51.976;7.594;2022-12-31T00:21:26;2.50;;;2.30;;
20888;SDS011;10604;51.976;7.594;2022-12-31T00:23:53;2.53;;;2.15;;
20888;SDS011;10604;51.976;7.594;2022-12-31T00:26:21;2.80;;;2.10;;
20888;SDS011;10604;51.976;7.594;2022-12-31T00:28:48;2.30;;;2.10;;
20888;SDS011;10604;51.976;7.594;2022-12-31T00:31:16;2.90;;;2.20;;
20888;SDS011;10604;51.976;7.594;2022-12-31T00:33:43;2.87;;;1.80;;
20888;SDS011;10604;51.976;7.594;2022-12-31T00:36:13;2.53;;;2.10;;
20888;SDS011;10604;51.976;7.594;2022-12-31T00:38:41;3.60;;;2.10;;
20888;SDS011;10604;51.976;7.594;2022-12-31T00:41:08;2.90;;;2.08;;
20888;SDS011;10604;51.976;7.594;2022-12-31T00:43:35;2.33;;;1.95;;
20888;SDS011;10604;51.976;7.594;2022-12-31T00:46:01;3.17;;;1.98;;
20888;SDS011;10604;51.976;7.594;2022-12-31T00:48:27;2.40;;;2.03;;
20888;SDS011;10604;51.976;7.594;2022-12-31T00:50:53;3.20;;;1.92;;
20888;SDS011;10604;51.976;7.594;2022-12-31T00:53:19;2.80;;;2.00;;
20888;SDS011;10604;51.976;7.594;2022-12-31T00:55:45;3.70;;;2.08;;
20888;SDS011;10604;51.976;7.594;2022-12-31T00:58:10;2.50;;;1.90;;
20888;SDS011;10604;51.976;7.594;2022-12-31T01:00:36;2.47;;;2.03;;
20888;SDS011;10604;51.976;7.594;2022-12-31T01:03:02;2.20;;;1.83;;
20888;SDS011;10604;51.976;7.594;2022-12-31T01:05:31;2.92;;;2.03;;
20888;SDS011;10604;51.976;7.594;2022-12-31T01:07:58;2.13;;;1.75;;
20888;SDS011;10604;51.976;7.594;2022-12-31T01:10:23;2.30;;;1.73;;
20888;SDS011;10604;51.976;7.594;2022-12-31T01:13:08;2.13;;;1.50;;
20888;SDS011;10604;51.976;7.594;2022-12-31T01:15:34;2.33;;;1.73;;
20888;SDS011;10604;51.976;7.594;2022-12-31T01:18:01;2.40;;;1.80;;
20888;SDS011;10604;51.976;7.594;2022-12-31T01:20:28;2.37;;;1.90;;
20888;SDS011;10604;51.976;7.594;2022-12-31T01:22:53;2.80;;;1.90;;
20888;SDS011;10604;51.976;7.594;2022-12-31T01:25:19;2.60;;;2.10;;
20888;SDS011;10604;51.976;7.594;2022-12-31T01:27:44;1.73;;;1.60;;
20888;SDS011;10604;51.976;7.594;2022-12-31T01:30:10;2.00;;;1.60;;
20888;SDS011;10604;51.976;7.594;2022-12-31T01:32:36;2.03;;;1.50;;
20888;SDS011;10604;51.976;7.594;2022-12-31T01:35:01;2.27;;;1.50;;
20888;SDS011;10604;51.976;7.594;2022-12-31T01:37:27;1.75;;;1.50;;
20888;SDS011;10604;51.976;7.594;2022-12-31T01:39:52;2.30;;;1.50;;
20888;SDS011;10604;51.976;7.594;2022-12-31T01:42:18;2.87;;;1.40;;
20888;SDS011;10604;51.976;7.594;2022-12-31T01:44:48;1.90;;;1.50;;
20888;SDS011;10604;51.976;7.594;2022-12-31T01:47:17;2.20;;;1.40;;
20888;SDS011;10604;51.976;7.594;2022-12-31T01:49:51;1.92;;;1.50;;
20888;SDS011;10604;51.976;7.594;2022-12-31T01:52:22;2.28;;;1.50;;
20888;SDS011;10604;51.976;7.594;2022-12-31T01:54:54;2.15;;;1.38;;
20888;SDS011;10604;51.976;7.594;2022-12-31T01:57:35;2.25;;;1.65;;
20888;SDS011;10604;51.976;7.594;2022-12-31T02:00:03;1.90;;;1.67;;
20888;SDS011;10604;51.976;7.594;2022-12-31T02:02:29;2.60;;;1.80;;
20888;SDS011;10604;51.976;7.594;2022-12-31T02:04:56;2.43;;;2.23;;
20888;SDS011;10604;51.976;7.594;2022-12-31T02:07:23;4.10;;;2.50;;
20888;SDS011;10604;51.976;7.594;2022-12-31T02:09:49;4.35;;;2.90;;
20888;SDS011;10604;51.976;7.594;2022-12-31T02:12:15;5.00;;;3.08;;
20888;SDS011;10604;51.976;7.594;2022-12-31T02:14:48;3.03;;;2.53;;
20888;SDS011;10604;51.976;7.594;2022-12-31T02:17:20;3.75;;;2.20;;
20888;SDS011;10604;51.976;7.594;2022-12-31T02:20:30;2.60;;;1.80;;
20888;SDS011;10604;51.976;7.594;2022-12-31T02:23:21;3.00;;;1.85;;
20888;SDS011;10604;51.976;7.594;2022-12-31T02:31:30;2.30;;;2.10;;
20888;SDS011;10604;51.976;7.594;2022-12-31T02:34:12;3.17;;;2.20;;
20888;SDS011;10604;51.976;7.594;2022-12-31T02:36:47;2.20;;;1.85;;
20888;SDS011;10604;51.976;7.594;2022-12-31T02:39:16;2.22;;;1.90;;
20888;SDS011;10604;51.976;7.594;2022-12-31T02:41:46;1.80;;;1.70;;
20888;SDS011;10604;51.976;7.594;2022-12-31T02:44:28;1.60;;;1.50;;
20888;SDS011;10604;51.976;7.594;2022-12-31T02:52:32;1.55;;;1.30;;
20888;SDS011;10604;51.976;7.594;2022-12-31T02:55:24;1.87;;;1.27;;
20888;SDS011;10604;51.976;7.594;2022-12-31T03:00:44;1.90;;;1.00;;
20888;SDS011;10604;51.976;7.594;2022-12-31T03:03:34;1.23;;;1.02;;
20888;SDS011;10604;51.976;7.594;2022-12-31T03:06:01;1.30;;;1.02;;
20888;SDS011;10604;51.976;7.594;2022-12-31T03:08:27;2.15;;;1.20;;
20888;SDS011;10604;51.976;7.594;2022-12-31T03:10:53;1.90;;;1.40;;
20888;SDS011;10604;51.976;7.594;2022-12-31T03:13:21;2.00;;;1.70;;
20888;SDS011;10604;51.976;7.594;2022-12-31T03:15:49;2.83;;;2.15;;
20888;SDS011;10604;51.976;7.594;2022-12-31T03:18:15;2.60;;;1.90;;
20888;SDS011;10604;51.976;7.594;2022-12-31T03:20:46;2.03;;;1.80;;
20888;SDS011;10604;51.976;7.594;2022-12-31T03:23:36;2.90;;;2.08;;
20888;SDS011;10604;51.976;7.594;2022-12-31T03:26:05;2.20;;;1.70;;
20888;SDS011;10604;51.976;7.594;2022-12-31T03:28:35;2.20;;;1.98;;
20888;SDS011;10604;51.976;7.594;2022-12-31T03:31:05;2.10;;;1.90;;
20888;SDS011;10604;51.976;7.594;2022-12-31T03:33:39;3.07;;;2.30;;
20888;SDS011;10604;51.976;7.594;2022-12-31T03:36:10;2.53;;;2.10;;
20888;SDS011;10604;51.976;7.594;2022-12-31T03:38:37;1.67;;;1.38;;
20888;SDS011;10604;51.976;7.594;2022-12-31T03:41:03;1.13;;;1.03;;
20888;SDS011;10604;51.976;7.594;2022-12-31T03:43:28;0.83;;;0.70;;
20888;SDS011;10604;51.976;7.594;2022-12-31T03:45:54;1.13;;;0.70;;
20888;SDS011;10604;51.976;7.594;2022-12-31T03:48:20;0.60;;;0.50;;
20888;SDS011;10604;51.976;7.594;2022-12-31T03:50:47;0.50;;;0.40;;
20888;SDS011;10604;51.976;7.594;2022-12-31T03:53:13;0.50;;;0.50;;
20888;SDS011;10604;51.976;7.594;2022-12-31T03:55:39;0.50;;;0.50;;
20888;SDS011;10604;51.976;7.594;2022-12-31T03:58:04;0.97;;;0.60;;
20888;SDS011;10604;51.976;7.594;2022-12-31T04:00:29;0.50;;;0.50;;
20888;SDS011;10604;51.976;7.594;2022-12-31T04:02:55;0.47;;;0.40;;
20888;SDS011;10604;51.976;7.594;2022-12-31T04:05:21;0.30;;;0.30;;
20888;SDS011;10604;51.976;7.594;2022-12-31T04:07:47;0.70;;;0.50;;
20888;SDS011;10604;51.976;7.594;2022-12-31T04:10:13;0.55;;;0.50;;
20888;SDS011;10604;51.976;7.594;2022-12-31T04:12:39;0.60;;;0.50;;
20888;SDS011;10604;51.976;7.594;2022-12-31T04:15:06;1.08;;;0.70;;
20888;SDS011;10604;51.976;7.594;2022-12-31T04:17:32;0.63;;;0.63;;
20888;SDS011;10604;51.976;7.594;2022-12-31T04:19:58;0.60;;;0.50;;
20888;SDS011;10604;51.976;7.594;2022-12-31T04:22:23;0.53;;;0.53;;
20888;SDS011;10604;51.976;7.594;2022-12-31T04:24:49;0.80;;;0.80;;
20888;SDS011;10604;51.976;7.594;2022-12-31T04:27:15;1.80;;;0.60;;
20888;SDS011;10604;51.976;7.594;2022-12-31T04:29:40;0.73;;;0.63;;
20888;SDS011;10604;51.976;7.594;2022-12-31T04:32:06;0.97;;;0.70;;
20888;SDS011;10604;51.976;7.594;2022-12-31T04:34:32;0.60;;;0.60;;
20888;SDS011;10604;51.976;7.594;2022-12-31T04:36:59;0.68;;;0.60;;
20888;SDS011;10604;51.976;7.594;2022-12-31T04:39:25;0.73;;;0.70;;
20888;SDS011;10604;51.976;7.594;2022-12-31T04:41:50;0.70;;;0.70;;
20888;SDS011;10604;51.976;7.594;2022-12-31T04:44:16;0.60;;;0.60;;
20888;SDS011;10604;51.976;7.594;2022-12-31T04:46:42;1.40;;;0.60;;
20888;SDS011;10604;51.976;7.594;2022-12-31T04:49:08;0.70;;;0.60;;
20888;SDS011;10604;51.976;7.594;2022-12-31T04:51:34;0.73;;;0.60;;
20888;SDS011;10604;51.976;7.594;2022-12-31T04:53:59;0.60;;;0.60;;
20888;SDS011;10604;51.976;7.594;2022-12-31T04:56:26;0.60;;;0.60;;
20888;SDS011;10604;51.976;7.594;2022-12-31T04:58:52;1.25;;;0.50;;
20888;SDS011;10604;51.976;7.594;2022-12-31T05:01:17;0.90;;;0.70;;
20888;SDS011;10604;51.976;7.594;2022-12-31T05:03:43;0.93;;;0.60;;
20888;SDS011;10604;51.976;7.594;2022-12-31T05:06:13;0.70;;;0.70;;
20888;SDS011;10604;51.976;7.594;2022-12-31T05:08:41;0.98;;;0.77;;
20888;SDS011;10604;51.976;7.594;2022-12-31T05:11:07;0.60;;;0.60;;
20888;SDS011;10604;51.976;7.594;2022-12-31T05:13:32;0.80;;;0.80;;
20888;SDS011;10604;51.976;7.594;2022-12-31T05:15:58;1.10;;;1.00;;
20888;SDS011;10604;51.976;7.594;2022-12-31T05:18:24;1.30;;;1.20;;
20888;SDS011;10604;51.976;7.594;2022-12-31T05:20:50;1.88;;;1.67;;
20888;SDS011;10604;51.976;7.594;2022-12-31T05:23:16;1.70;;;1.60;;
20888;SDS011;10604;51.976;7.594;2022-12-31T05:25:42;2.20;;;1.90;;
20888;SDS011;10604;51.976;7.594;2022-12-31T05:28:08;2.45;;;2.17;;
20888;SDS011;10604;51.976;7.594;2022-12-31T05:30:34;2.27;;;2.07;;
20888;SDS011;10604;51.976;7.594;2022-12-31T05:33:00;1.80;;;1.60;;
20888;SDS011;10604;51.976;7.594;2022-12-31T05:35:25;3.07;;;1.63;;
20888;SDS011;10604;51.976;7.594;2022-12-31T05:37:51;1.70;;;1.60;;
20888;SDS011;10604;51.976;7.594;2022-12-31T05:40:16;3.27;;;1.30;;
20888;SDS011;10604;51.976;7.594;2022-12-31T05:42:42;2.00;;;1.20;;
20888;SDS011;10604;51.976;7.594;2022-12-31T05:45:07;1.42;;;1.05;;
20888;SDS011;10604;51.976;7.594;2022-12-31T05:47:33;1.30;;;0.80;;
20888;SDS011;10604;51.976;7.594;2022-12-31T05:49:58;2.10;;;0.90;;
20888;SDS011;10604;51.976;7.594;2022-12-31T05:52:24;2.07;;;0.80;;
20888;SDS011;10604;51.976;7.594;2022-12-31T05:54:49;1.97;;;0.83;;
20888;SDS011;10604;51.976;7.594;2022-12-31T05:57:15;1.15;;;0.60;;
20888;SDS011;10604;51.976;7.594;2022-12-31T05:59:40;1.90;;;0.60;;
20888;SDS011;10604;51.976;7.594;2022-12-31T06:02:05;1.73;;;0.67;;
20888;SDS011;10604;51.976;7.594;2022-12-31T06:04:31;3.13;;;0.70;;
20888;SDS011;10604;51.976;7.594;2022-12-31T06:06:56;1.87;;;0.70;;
20888;SDS011;10604;51.976;7.594;2022-12-31T06:09:22;2.30;;;0.60;;
20888;SDS011;10604;51.976;7.594;2022-12-31T06:11:47;1.10;;;0.73;;
20888;SDS011;10604;51.976;7.594;2022-12-31T06:14:13;1.60;;;0.60;;
20888;SDS011;10604;51.976;7.594;2022-12-31T06:16:38;1.30;;;0.57;;
20888;SDS011;10604;51.976;7.594;2022-12-31T06:19:04;1.85;;;0.73;;
20888;SDS011;10604;51.976;7.594;2022-12-31T06:21:30;0.80;;;0.60;;
20888;SDS011;10604;51.976;7.594;2022-12-31T06:23:55;1.63;;;0.60;;
20888;SDS011;10604;51.976;7.594;2022-12-31T06:26:22;1.70;;;0.60;;
20888;SDS011;10604;51.976;7.594;2022-12-31T06:28:47;2.20;;;0.70;;
20888;SDS011;10604;51.976;7.594;2022-12-31T06:31:13;2.80;;;0.73;;
20888;SDS011;10604;51.976;7.594;2022-12-31T06:33:39;3.00;;;0.63;;
20888;SDS011;10604;51.976;7.594;2022-12-31T06:36:06;1.20;;;0.60;;
20888;SDS011;10604;51.976;7.594;2022-12-31T06:38:35;1.50;;;0.60;;
20888;SDS011;10604;51.976;7.594;2022-12-31T06:41:05;1.02;;;0.60;;
20888;SDS011;10604;51.976;7.594;2022-12-31T06:43:32;1.48;;;0.80;;
20888;SDS011;10604;51.976;7.594;2022-12-31T06:46:02;2.80;;;0.75;;
20888;SDS011;10604;51.976;7.594;2022-12-31T06:48:29;1.40;;;0.90;;
20888;SDS011;10604;51.976;7.594;2022-12-31T06:50:54;2.33;;;0.80;;
20888;SDS011;10604;51.976;7.594;2022-12-31T06:53:20;2.78;;;1.13;;
20888;SDS011;10604;51.976;7.594;2022-12-31T06:55:46;1.20;;;0.90;;
20888;SDS011;10604;51.976;7.594;2022-12-31T06:58:13;1.95;;;1.02;;
20888;SDS011;10604;51.976;7.594;2022-12-31T07:00:51;1.57;;;1.00;;
20888;SDS011;10604;51.976;7.594;2022-12-31T07:05:58;2.90;;;1.00;;
20888;SDS011;10604;51.976;7.594;2022-12-31T07:08:49;2.25;;;1.00;;
20888;SDS011;10604;51.976;7.594;2022-12-31T07:11:23;3.83;;;1.00;;
20888;SDS011;10604;51.976;7.594;2022-12-31T07:16:28;2.33;;;0.90;;
20888;SDS011;10604;51.976;7.594;2022-12-31T07:21:40;3.15;;;0.88;;
20888;SDS011;10604;51.976;7.594;2022-12-31T07:24:06;1.37;;;0.90;;
20888;SDS011;10604;51.976;7.594;2022-12-31T07:45:23;1.80;;;0.77;;
20888;SDS011;10604;51.976;7.594;2022-12-31T07:47:50;2.70;;;0.85;;
20888;SDS011;10604;51.976;7.594;2022-12-31T07:50:17;3.10;;;0.73;;
20888;SDS011;10604;51.976;7.594;2022-12-31T07:52:43;1.73;;;0.80;;
20888;SDS011;10604;51.976;7.594;2022-12-31T07:55:10;1.60;;;0.60;;
20888;SDS011;10604;51.976;7.594;2022-12-31T07:57:51;1.25;;;0.80;;
20888;SDS011;10604;51.976;7.594;2022-12-31T08:00:23;1.45;;;0.70;;
20888;SDS011;10604;51.976;7.594;2022-12-31T08:08:33;1.25;;;0.60;;
20888;SDS011;10604;51.976;7.594;2022-12-31T08:13:48;2.70;;;0.80;;
20888;SDS011;10604;51.976;7.594;2022-12-31T08:16:14;1.73;;;0.90;;
20888;SDS011;10604;51.976;7.594;2022-12-31T08:18:40;1.77;;;0.70;;
20888;SDS011;10604;51.976;7.594;2022-12-31T08:23:33;1.83;;;1.05;;
20888;SDS011;10604;51.976;7.594;2022-12-31T08:26:17;2.45;;;0.90;;
20888;SDS011;10604;51.976;7.594;2022-12-31T08:28:57;1.80;;;0.70;;
20888;SDS011;10604;51.976;7.594;2022-12-31T08:31:50;2.75;;;0.80;;
20888;SDS011;10604;51.976;7.594;2022-12-31T08:37:00;2.45;;;0.88;;
20888;SDS011;10604;51.976;7.594;2022-12-31T08:39:39;2.00;;;1.00;;
20888;SDS011;10604;51.976;7.594;2022-12-31T08:42:28;1.73;;;0.70;;
20888;SDS011;10604;51.976;7.594;2022-12-31T08:45:07;2.03;;;0.80;;
20888;SDS011;10604;51.976;7.594;2022-12-31T08:47:54;1.83;;;0.90;;
20888;SDS011;10604;51.976;7.594;2022-12-31T08:50:26;1.13;;;0.70;;
20888;SDS011;10604;51.976;7.594;2022-12-31T08:52:52;2.20;;;0.90;;
20888;SDS011;10604;51.976;7.594;2022-12-31T08:55:18;2.30;;;1.00;;
20888;SDS011;10604;51.976;7.594;2022-12-31T09:00:58;1.70;;;0.80;;
20888;SDS011;10604;51.976;7.594;2022-12-31T09:06:11;2.38;;;0.93;;
20888;SDS011;10604;51.976;7.594;2022-12-31T09:09:05;1.08;;;0.80;;
20888;SDS011;10604;51.976;7.594;2022-12-31T09:14:43;2.65;;;0.90;;
20888;SDS011;10604;51.976;7.594;2022-12-31T09:17:35;2.20;;;0.80;;
20888;SDS011;10604;51.976;7.594;2022-12-31T09:20:02;2.95;;;0.65;;
20888;SDS011;10604;51.976;7.594;2022-12-31T09:22:28;2.42;;;0.90;;
20888;SDS011;10604;51.976;7.594;2022-12-31T09:24:54;2.45;;;0.80;;
20888;SDS011;10604;51.976;7.594;2022-12-31T09:27:25;1.23;;;0.60;;
20888;SDS011;10604;51.976;7.594;2022-12-31T09:35:37;1.77;;;0.73;;
20888;SDS011;10604;51.976;7.594;2022-12-31T09:38:06;2.73;;;0.83;;
20888;SDS011;10604;51.976;7.594;2022-12-31T09:52:13;2.78;;;0.88;;
20888;SDS011;10604;51.976;7.594;2022-12-31T10:06:20;2.03;;;0.90;;
20888;SDS011;10604;51.976;7.594;2022-12-31T10:17:33;2.80;;;1.10;;
20888;SDS011;10604;51.976;7.594;2022-12-31T10:33:41;1.40;;;0.80;;
20888;SDS011;10604;51.976;7.594;2022-12-31T10:44:44;2.60;;;1.10;;
20888;SDS011;10604;51.976;7.594;2022-12-31T11:22:59;2.13;;;1.10;;
20888;SDS011;10604;51.976;7.594;2022-12-31T11:31:15;3.60;;;1.13;;
20888;SDS011;10604;51.976;7.594;2022-12-31T11:41:45;2.28;;;1.30;;
20888;SDS011;10604;51.976;7.594;2022-12-31T11:47:56;2.00;;;1.10;;
20888;SDS011;10604;51.976;7.594;2022-12-31T11:53:13;3.17;;;1.30;;
20888;SDS011;10604;51.976;7.594;2022-12-31T11:55:58;4.25;;;1.35;;
20888;SDS011;10604;51.976;7.594;2022-12-31T11:58:45;4.00;;;1.47;;
20888;SDS011;10604;51.976;7.594;2022-12-31T12:01:16;2.70;;;1.30;;
20888;SDS011;10604;51.976;7.594;2022-12-31T12:03:46;2.33;;;1.30;;
20888;SDS011;10604;51.976;7.594;2022-12-31T12:06:12;3.05;;;1.10;;
20888;SDS011;10604;51.976;7.594;2022-12-31T12:08:40;2.85;;;1.20;;
20888;SDS011;10604;51.976;7.594;2022-12-31T12:13:42;4.07;;;1.20;;
20888;SDS011;10604;51.976;7.594;2022-12-31T12:16:07;2.63;;;1.10;;
20888;SDS011;10604;51.976;7.594;2022-12-31T12:18:34;4.50;;;1.30;;
20888;SDS011;10604;51.976;7.594;2022-12-31T12:21:13;5.18;;;1.45;;
20888;SDS011;10604;51.976;7.594;2022-12-31T12:23:52;3.42;;;1.25;;
20888;SDS011;10604;51.976;7.594;2022-12-31T12:29:16;4.68;;;1.40;;
20888;SDS011;10604;51.976;7.594;2022-12-31T12:34:42;4.35;;;1.35;;
20888;SDS011;10604;51.976;7.594;2022-12-31T12:40:01;3.50;;;1.30;;
20888;SDS011;10604;51.976;7.594;2022-12-31T12:42:29;2.60;;;1.25;;
20888;SDS011;10604;51.976;7.594;2022-12-31T12:44:59;3.60;;;1.58;;
20888;SDS011;10604;51.976;7.594;2022-12-31T12:47:34;2.85;;;1.20;;
20888;SDS011;10604;51.976;7.594;2022-12-31T12:49:59;3.17;;;1.27;;
20888;SDS011;10604;51.976;7.594;2022-12-31T12:55:05;1.77;;;1.00;;
20888;SDS011;10604;51.976;7.594;2022-12-31T12:57:43;3.15;;;1.13;;
20888;SDS011;10604;51.976;7.594;2022-12-31T13:00:15;4.03;;;1.40;;
20888;SDS011;10604;51.976;7.594;2022-12-31T13:08:34;3.03;;;1.30;;
20888;SDS011;10604;51.976;7.594;2022-12-31T13:13:47;3.58;;;1.20;;
20888;SDS011;10604;51.976;7.594;2022-12-31T13:21:39;3.63;;;1.35;;
20888;SDS011;10604;51.976;7.594;2022-12-31T13:29:41;5.47;;;1.45;;
20888;SDS011;10604;51.976;7.594;2022-12-31T13:32:11;4.88;;;1.35;;
20888;SDS011;10604;51.976;7.594;2022-12-31T13:34:42;3.38;;;1.35;;
20888;SDS011;10604;51.976;7.594;2022-12-31T13:37:17;3.93;;;1.30;;
20888;SDS011;10604;51.976;7.594;2022-12-31T13:39:58;4.97;;;1.30;;
20888;SDS011;10604;51.976;7.594;2022-12-31T13:42:41;3.47;;;1.20;;
20888;SDS011;10604;51.976;7.594;2022-12-31T13:45:18;4.60;;;1.37;;
20888;SDS011;10604;51.976;7.594;2022-12-31T13:47:51;2.70;;;1.45;;
20888;SDS011;10604;51.976;7.594;2022-12-31T13:50:30;3.55;;;1.30;;
20888;SDS011;10604;51.976;7.594;2022-12-31T13:55:53;2.38;;;1.30;;
20888;SDS011;10604;51.976;7.594;2022-12-31T13:59:27;3.50;;;1.30;;
20888;SDS011;10604;51.976;7.594;2022-12-31T14:01:39;4.13;;;1.42;;
20888;SDS011;10604;51.976;7.594;2022-12-31T14:06:44;4.05;;;1.60;;
20888;SDS011;10604;51.976;7.594;2022-12-31T14:09:21;4.07;;;1.30;;
20888;SDS011;10604;51.976;7.594;2022-12-31T14:14:47;4.25;;;1.50;;
20888;SDS011;10604;51.976;7.594;2022-12-31T14:20:32;3.42;;;1.50;;
20888;SDS011;10604;51.976;7.594;2022-12-31T14:23:22;5.15;;;1.50;;
20888;SDS011;10604;51.976;7.594;2022-12-31T14:28:35;4.60;;;1.40;;
20888;SDS011;10604;51.976;7.594;2022-12-31T14:37:29;3.75;;;1.38;;
20888;SDS011;10604;51.976;7.594;2022-12-31T14:43:06;4.00;;;1.63;;
20888;SDS011;10604;51.976;7.594;2022-12-31T14:45:48;4.82;;;1.77;;
20888;SDS011;10604;51.976;7.594;2022-12-31T14:51:10;3.77;;;1.50;;
20888;SDS011;10604;51.976;7.594;2022-12-31T14:53:37;3.38;;;1.33;;
20888;SDS011;10604;51.976;7.594;2022-12-31T14:56:04;3.13;;;1.40;;
20888;SDS011;10604;51.976;7.594;2022-12-31T14:58:55;3.83;;;1.60;;
20888;SDS011;10604;51.976;7.594;2022-12-31T15:01:22;3.55;;;1.30;;
20888;SDS011;10604;51.976;7.594;2022-12-31T15:03:50;4.40;;;1.75;;
20888;SDS011;10604;51.976;7.594;2022-12-31T15:09:28;4.45;;;1.58;;
20888;SDS011;10604;51.976;7.594;2022-12-31T15:22:51;5.40;;;2.00;;
20888;SDS011;10604;51.976;7.594;2022-12-31T15:25:34;6.57;;;1.92;;
20888;SDS011;10604;51.976;7.594;2022-12-31T15:28:03;6.70;;;1.60;;
20888;SDS011;10604;51.976;7.594;2022-12-31T15:32:58;4.88;;;2.05;;
20888;SDS011;10604;51.976;7.594;2022-12-31T15:35:44;4.30;;;1.83;;
20888;SDS011;10604;51.976;7.594;2022-12-31T15:38:30;4.13;;;1.77;;
20888;SDS011;10604;51.976;7.594;2022-12-31T15:41:24;3.53;;;1.58;;
20888;SDS011;10604;51.976;7.594;2022-12-31T15:46:20;6.10;;;2.20;;
20888;SDS011;10604;51.976;7.594;2022-12-31T15:48:49;7.43;;;2.65;;
20888;SDS011;10604;51.976;7.594;2022-12-31T15:51:24;5.13;;;2.05;;
20888;SDS011;10604;51.976;7.594;2022-12-31T15:53:53;7.15;;;2.65;;
20888;SDS011;10604;51.976;7.594;2022-12-31T15:56:43;5.65;;;2.08;;
20888;SDS011;10604;51.976;7.594;2022-12-31T15:59:12;4.63;;;1.75;;
20888;SDS011;10604;51.976;7.594;2022-12-31T16:01:40;6.05;;;2.22;;
20888;SDS011;10604;51.976;7.594;2022-12-31T16:06:46;5.03;;;1.70;;
20888;SDS011;10604;51.976;7.594;2022-12-31T16:09:22;5.50;;;2.03;;
20888;SDS011;10604;51.976;7.594;2022-12-31T16:11:51;4.17;;;1.90;;
20888;SDS011;10604;51.976;7.594;2022-12-31T16:16:54;5.35;;;2.05;;
20888;SDS011;10604;51.976;7.594;2022-12-31T16:22:14;5.05;;;1.80;;
20888;SDS011;10604;51.976;7.594;2022-12-31T16:24:42;3.40;;;1.67;;
20888;SDS011;10604;51.976;7.594;2022-12-31T16:27:11;4.60;;;1.80;;
20888;SDS011;10604;51.976;7.594;2022-12-31T16:29:43;3.33;;;1.77;;
20888;SDS011;10604;51.976;7.594;2022-12-31T16:32:14;3.58;;;1.65;;
20888;SDS011;10604;51.976;7.594;2022-12-31T16:34:41;4.60;;;1.85;;
20888;SDS011;10604;51.976;7.594;2022-12-31T16:37:13;3.05;;;1.60;;
20888;SDS011;10604;51.976;7.594;2022-12-31T16:42:20;3.92;;;1.73;;
20888;SDS011;10604;51.976;7.594;2022-12-31T16:44:54;4.47;;;1.80;;
20888;SDS011;10604;51.976;7.594;2022-12-31T16:47:34;3.53;;;1.42;;
20888;SDS011;10604;51.976;7.594;2022-12-31T16:50:06;5.00;;;1.73;;
20888;SDS011;10604;51.976;7.594;2022-12-31T16:52:44;3.30;;;2.00;;
20888;SDS011;10604;51.976;7.594;2022-12-31T16:55:23;4.32;;;2.10;;
20888;SDS011;10604;51.976;7.594;2022-12-31T16:57:50;4.05;;;1.65;;
20888;SDS011;10604;51.976;7.594;2022-12-31T17:00:22;3.83;;;1.70;;
20888;SDS011;10604;51.976;7.594;2022-12-31T17:02:57;3.63;;;1.60;;
20888;SDS011;10604;51.976;7.594;2022-12-31T17:05:52;4.55;;;1.90;;
20888;SDS011;10604;51.976;7.594;2022-12-31T17:08:22;5.03;;;1.83;;
20888;SDS011;10604;51.976;7.594;2022-12-31T17:11:18;5.17;;;2.00;;
20888;SDS011;10604;51.976;7.594;2022-12-31T17:13:53;4.88;;;1.90;;
20888;SDS011;10604;51.976;7.594;2022-12-31T17:16:21;3.95;;;2.00;;
20888;SDS011;10604;51.976;7.594;2022-12-31T17:18:46;2.90;;;1.80;;
20888;SDS011;10604;51.976;7.594;2022-12-31T17:21:12;4.70;;;1.83;;
20888;SDS011;10604;51.976;7.594;2022-12-31T17:23:38;5.10;;;1.75;;
20888;SDS011;10604;51.976;7.594;2022-12-31T17:26:11;5.55;;;2.10;;
20888;SDS011;10604;51.976;7.594;2022-12-31T17:28:40;2.45;;;1.40;;
20888;SDS011;10604;51.976;7.594;2022-12-31T17:34:04;4.47;;;1.95;;
20888;SDS011;10604;51.976;7.594;2022-12-31T17:36:36;4.95;;;2.33;;
20888;SDS011;10604;51.976;7.594;2022-12-31T17:39:09;4.47;;;2.20;;
20888;SDS011;10604;51.976;7.594;2022-12-31T17:41:42;3.77;;;2.10;;
20888;SDS011;10604;51.976;7.594;2022-12-31T17:44:11;2.58;;;1.60;;
20888;SDS011;10604;51.976;7.594;2022-12-31T17:46:41;5.03;;;1.90;;
20888;SDS011;10604;51.976;7.594;2022-12-31T17:49:07;3.60;;;1.70;;
20888;SDS011;10604;51.976;7.594;2022-12-31T17:51:38;3.63;;;1.98;;
20888;SDS011;10604;51.976;7.594;2022-12-31T17:54:12;2.93;;;1.43;;
20888;SDS011;10604;51.976;7.594;2022-12-31T17:56:38;3.27;;;1.77;;
20888;SDS011;10604;51.976;7.594;2022-12-31T17:59:04;3.58;;;1.63;;
20888;SDS011;10604;51.976;7.594;2022-12-31T18:01:31;3.90;;;2.00;;
20888;SDS011;10604;51.976;7.594;2022-12-31T18:03:57;4.57;;;2.10;;
20888;SDS011;10604;51.976;7.594;2022-12-31T18:06:22;6.27;;;3.63;;
20888;SDS011;10604;51.976;7.594;2022-12-31T18:08:48;6.07;;;2.40;;
20888;SDS011;10604;51.976;7.594;2022-12-31T18:11:18;3.30;;;1.67;;
20888;SDS011;10604;51.976;7.594;2022-12-31T18:13:46;3.47;;;1.95;;
20888;SDS011;10604;51.976;7.594;2022-12-31T18:16:11;8.00;;;4.20;;
20888;SDS011;10604;51.976;7.594;2022-12-31T18:18:37;3.22;;;2.00;;
20888;SDS011;10604;51.976;7.594;2022-12-31T18:21:05;4.90;;;1.90;;
20888;SDS011;10604;51.976;7.594;2022-12-31T18:23:40;3.05;;;1.70;;
20888;SDS011;10604;51.976;7.594;2022-12-31T18:26:14;3.13;;;1.85;;
20888;SDS011;10604;51.976;7.594;2022-12-31T18:28:43;5.00;;;2.20;;
20888;SDS011;10604;51.976;7.594;2022-12-31T18:31:14;4.72;;;2.50;;
20888;SDS011;10604;51.976;7.594;2022-12-31T18:33:43;3.60;;;2.42;;
20888;SDS011;10604;51.976;7.594;2022-12-31T18:36:10;4.38;;;2.20;;
20888;SDS011;10604;51.976;7.594;2022-12-31T18:38:37;5.85;;;2.08;;
20888;SDS011;10604;51.976;7.594;2022-12-31T18:41:03;4.15;;;2.35;;
20888;SDS011;10604;51.976;7.594;2022-12-31T18:43:29;4.63;;;1.95;;
20888;SDS011;10604;51.976;7.594;2022-12-31T18:45:54;5.70;;;1.93;;
20888;SDS011;10604;51.976;7.594;2022-12-31T18:48:20;9.87;;;4.23;;
20888;SDS011;10604;51.976;7.594;2022-12-31T18:50:45;5.70;;;2.40;;
20888;SDS011;10604;51.976;7.594;2022-12-31T18:53:13;4.45;;;1.95;;
20888;SDS011;10604;51.976;7.594;2022-12-31T18:55:43;3.87;;;1.87;;
20888;SDS011;10604;51.976;7.594;2022-12-31T18:58:11;4.72;;;1.70;;
20888;SDS011;10604;51.976;7.594;2022-12-31T19:00:37;5.60;;;2.00;;
20888;SDS011;10604;51.976;7.594;2022-12-31T19:03:02;3.60;;;2.00;;
20888;SDS011;10604;51.976;7.594;2022-12-31T19:05:30;4.97;;;2.28;;
20888;SDS011;10604;51.976;7.594;2022-12-31T19:07:57;3.85;;;1.88;;
20888;SDS011;10604;51.976;7.594;2022-12-31T19:10:23;5.00;;;2.00;;
20888;SDS011;10604;51.976;7.594;2022-12-31T19:12:50;4.75;;;2.15;;
20888;SDS011;10604;51.976;7.594;2022-12-31T19:15:29;5.28;;;2.05;;
20888;SDS011;10604;51.976;7.594;2022-12-31T19:17:57;3.47;;;1.77;;
20888;SDS011;10604;51.976;7.594;2022-12-31T19:20:26;7.17;;;1.80;;
20888;SDS011;10604;51.976;7.594;2022-12-31T19:22:53;5.00;;;2.33;;
20888;SDS011;10604;51.976;7.594;2022-12-31T19:25:23;4.20;;;1.80;;
20888;SDS011;10604;51.976;7.594;2022-12-31T19:27:51;6.20;;;1.90;;
20888;SDS011;10604;51.976;7.594;2022-12-31T19:32:50;5.18;;;1.80;;
20888;SDS011;10604;51.976;7.594;2022-12-31T19:35:15;5.78;;;2.40;;
20888;SDS011;10604;51.976;7.594;2022-12-31T19:37:41;5.43;;;2.22;;
20888;SDS011;10604;51.976;7.594;2022-12-31T19:40:15;5.93;;;2.10;;